createdAt,value
2018-08-12T00:04:13.031Z,27.18
2018-08-12T00:09:16.648Z,27.25
2018-08-12T00:14:20.257Z,27.60
2018-08-12T00:19:23.820Z,27.53
2018-08-12T00:24:27.249Z,27.51
2018-08-12T00:29:30.717Z,27.68
2018-08-12T00:34:34.242Z,27.58
2018-08-12T00:39:37.866Z,27.33
2018-08-12T00:44:41.413Z,27.22
2018-08-12T00:49:44.905Z,27.20
2018-08-12T00:54:48.448Z,26.90
2018-08-12T00:59:52.106Z,27.18
2018-08-12T01:04:55.814Z,27.46
2018-08-12T01:09:59.517Z,27.37
2018-08-12T01:15:03.141Z,26.89
2018-08-12T01:20:08.922Z,27.22
2018-08-12T01:25:12.642Z,27.39
2018-08-12T01:30:18.325Z,26.90
2018-08-12T01:35:21.869Z,26.74
2018-08-12T01:40:25.736Z,26.83
2018-08-12T01:45:29.300Z,26.70
2018-08-12T01:50:33.175Z,27.22
2018-08-12T01:55:36.665Z,27.32
2018-08-12T02:00:40.272Z,26.99
2018-08-12T02:05:43.876Z,27.41
2018-08-12T02:10:47.309Z,27.04
2018-08-12T02:15:50.877Z,27.27
2018-08-12T02:20:54.400Z,27.20
2018-08-12T02:25:58.053Z,27.30
2018-08-12T02:31:01.627Z,27.30
2018-08-12T02:36:05.264Z,27.53
2018-08-12T02:41:08.837Z,27.03
2018-08-12T02:46:12.401Z,27.58
2018-08-12T02:51:16.066Z,27.39
2018-08-12T02:56:19.904Z,27.29
2018-08-12T03:01:23.574Z,27.23
2018-08-12T03:06:27.128Z,27.29
2018-08-12T03:11:30.564Z,27.49
2018-08-12T03:16:34.337Z,27.84
2018-08-12T03:21:37.857Z,27.62
2018-08-12T03:26:41.390Z,27.65
2018-08-12T03:31:44.889Z,27.79
2018-08-12T03:36:48.373Z,28.17
2018-08-12T03:41:51.838Z,28.31
2018-08-12T03:46:55.470Z,27.98
2018-08-12T03:51:59.068Z,28.04
2018-08-12T03:57:02.644Z,28.21
2018-08-12T04:02:06.236Z,27.82
2018-08-12T04:07:09.720Z,28.82
2018-08-12T04:12:13.367Z,28.48
2018-08-12T04:17:16.822Z,28.42
2018-08-12T04:22:20.396Z,29.18
2018-08-12T04:27:23.865Z,28.77
2018-08-12T04:32:27.325Z,28.84
2018-08-12T04:37:30.841Z,28.62
2018-08-12T04:42:34.424Z,29.00
2018-08-12T04:47:38.689Z,29.07
2018-08-12T04:52:42.402Z,28.82
2018-08-12T04:57:46.840Z,28.84
2018-08-12T05:02:51.989Z,28.90
2018-08-12T05:07:55.815Z,29.11
2018-08-12T05:12:59.527Z,28.80
2018-08-12T05:18:04.528Z,28.58
2018-08-12T05:23:08.481Z,28.72
2018-08-12T05:28:17.384Z,28.64
2018-08-12T05:33:21.454Z,28.74
2018-08-12T05:38:24.927Z,28.31
2018-08-12T05:43:28.546Z,28.63
2018-08-12T05:48:32.333Z,28.35
2018-08-12T05:53:36.047Z,28.51
2018-08-12T05:58:39.552Z,28.54
2018-08-12T06:03:43.245Z,28.89
2018-08-12T06:08:46.811Z,28.51
2018-08-12T06:13:50.829Z,28.81
2018-08-12T06:18:55.085Z,28.73
2018-08-12T06:23:58.833Z,29.29
2018-08-12T06:29:02.297Z,28.88
2018-08-12T06:34:05.812Z,29.43
2018-08-12T06:39:11.492Z,29.21
2018-08-12T06:44:15.094Z,29.41
2018-08-12T06:49:18.568Z,29.19
2018-08-12T06:54:22.227Z,29.63
2018-08-12T06:59:25.860Z,29.30
2018-08-12T07:04:29.638Z,29.67
2018-08-12T07:09:33.571Z,28.58
2018-08-12T07:14:37.324Z,28.46
2018-08-12T07:19:40.832Z,28.93
2018-08-12T07:24:44.560Z,27.97
2018-08-12T07:29:48.136Z,28.08
2018-08-12T07:34:51.765Z,27.91
2018-08-12T07:39:55.194Z,28.23
2018-08-12T07:44:59.021Z,28.06
2018-08-12T07:50:02.605Z,28.03
2018-08-12T07:55:07.033Z,27.33
2018-08-12T08:00:15.192Z,27.82
2018-08-12T08:05:18.747Z,27.55
2018-08-12T08:10:22.224Z,27.41
2018-08-12T08:15:25.724Z,27.05
2018-08-12T08:20:29.262Z,27.18
2018-08-12T08:25:32.922Z,27.49
2018-08-12T08:30:36.591Z,27.07
2018-08-12T08:35:40.141Z,28.37
2018-08-12T08:40:43.825Z,30.08
2018-08-12T08:45:47.750Z,29.87
2018-08-12T08:50:51.550Z,30.75
2018-08-12T08:55:55.191Z,31.05
2018-08-12T09:00:58.617Z,30.81
2018-08-12T09:06:02.243Z,30.97
2018-08-12T09:11:06.729Z,30.41
2018-08-12T09:16:10.327Z,30.71
2018-08-12T09:21:13.839Z,30.57
2018-08-12T09:26:17.369Z,29.70
2018-08-12T09:31:21.059Z,29.70
2018-08-12T09:36:24.544Z,30.22
2018-08-12T09:41:28.108Z,29.33
2018-08-12T09:46:31.644Z,29.74
2018-08-12T09:51:35.331Z,29.71
2018-08-12T09:56:44.500Z,29.14
2018-08-12T10:01:47.988Z,29.87
2018-08-12T10:06:51.724Z,29.18
2018-08-12T10:11:55.290Z,28.80
2018-08-12T10:16:58.819Z,28.59
2018-08-12T10:22:02.985Z,29.09
2018-08-12T10:27:06.850Z,29.03
2018-08-12T10:32:10.372Z,28.04
2018-08-12T10:37:13.856Z,28.29
2018-08-12T10:42:17.449Z,27.95
2018-08-12T10:47:21.217Z,27.60
2018-08-12T10:52:24.817Z,28.13
2018-08-12T10:57:28.672Z,27.80
2018-08-12T11:02:32.229Z,28.37
2018-08-12T11:07:36.197Z,28.15
2018-08-12T11:12:39.923Z,28.38
2018-08-12T11:17:43.420Z,29.35
2018-08-12T11:22:47.171Z,29.69
2018-08-12T11:27:50.781Z,29.56
2018-08-12T11:32:54.386Z,29.42
2018-08-12T11:37:58.154Z,29.99
2018-08-12T11:43:01.735Z,29.48
2018-08-12T11:48:05.296Z,29.72
2018-08-12T11:53:09.892Z,29.42
2018-08-12T11:58:13.612Z,30.12
2018-08-12T12:03:17.111Z,30.13
2018-08-12T12:08:20.618Z,30.27
2018-08-12T12:13:24.147Z,30.24
2018-08-12T12:18:27.883Z,30.60
2018-08-12T12:23:31.474Z,30.40
2018-08-12T12:28:35.072Z,30.43
2018-08-12T12:33:38.741Z,30.40
2018-08-12T12:38:43.804Z,30.35
2018-08-12T12:43:47.717Z,30.68
2018-08-12T12:48:51.535Z,30.58
2018-08-12T12:53:55.264Z,30.66
2018-08-12T12:58:58.747Z,30.83
2018-08-12T13:04:02.394Z,30.37
2018-08-12T13:09:09.496Z,30.17
2018-08-12T13:14:13.012Z,30.35
2018-08-12T13:19:18.549Z,30.71
2018-08-12T13:24:22.140Z,30.79
2018-08-12T13:29:25.886Z,30.89
2018-08-12T13:34:30.338Z,30.85
2018-08-12T13:39:33.909Z,31.01
2018-08-12T13:44:37.737Z,30.44
2018-08-12T13:49:41.317Z,30.90
2018-08-12T13:54:45.114Z,30.58
2018-08-12T13:59:49.109Z,31.10
2018-08-12T14:04:52.606Z,31.39
2018-08-12T14:09:56.102Z,31.41
2018-08-12T14:14:59.828Z,31.23
2018-08-12T14:20:03.517Z,31.37
2018-08-12T14:25:08.257Z,31.27
2018-08-12T14:30:14.468Z,32.31
2018-08-12T14:35:18.155Z,31.85
2018-08-12T14:40:21.669Z,31.97
2018-08-12T14:45:25.175Z,32.26
2018-08-12T14:50:28.803Z,32.42
2018-08-12T14:55:32.521Z,31.71
2018-08-12T15:00:36.129Z,31.91
2018-08-12T15:05:39.785Z,31.61
2018-08-12T15:10:43.478Z,31.53
2018-08-12T15:15:47.302Z,32.15
2018-08-12T15:20:50.949Z,31.66
2018-08-12T15:25:54.465Z,31.70
2018-08-12T15:30:58.058Z,31.87
2018-08-12T15:36:01.649Z,31.79
2018-08-12T15:41:05.192Z,32.03
2018-08-12T15:46:08.729Z,32.21
2018-08-12T15:51:12.388Z,32.13
2018-08-12T15:56:16.549Z,32.33
2018-08-12T16:01:20.373Z,32.16
2018-08-12T16:06:24.910Z,31.92
2018-08-12T16:11:28.485Z,32.40
2018-08-12T16:16:32.130Z,32.05
2018-08-12T16:21:35.731Z,32.31
2018-08-12T16:26:39.373Z,32.52
2018-08-12T16:31:42.950Z,32.75
2018-08-12T16:36:47.072Z,32.72
2018-08-12T16:41:51.656Z,32.71
2018-08-12T16:46:55.249Z,32.71
2018-08-12T16:51:59.382Z,32.76
2018-08-12T16:57:03.750Z,33.10
2018-08-12T17:02:07.983Z,32.61
2018-08-12T17:07:12.706Z,33.11
2018-08-12T17:12:17.700Z,32.65
2018-08-12T17:17:21.524Z,32.80
2018-08-12T17:22:26.206Z,32.91
2018-08-12T17:27:31.226Z,33.08
2018-08-12T17:32:35.173Z,33.27
2018-08-12T17:37:39.486Z,32.84
2018-08-12T17:42:43.460Z,33.25
2018-08-12T17:47:48.400Z,32.97
2018-08-12T17:52:52.559Z,32.92
2018-08-12T17:57:56.047Z,33.14
2018-08-12T18:02:59.995Z,33.45
2018-08-12T18:08:04.049Z,33.15
2018-08-12T18:13:07.545Z,33.42
2018-08-12T18:18:11.130Z,33.17
2018-08-12T18:23:14.877Z,33.40
2018-08-12T18:28:18.528Z,32.86
2018-08-12T18:33:22.825Z,32.71
2018-08-12T18:38:26.377Z,32.42
2018-08-12T18:43:30.059Z,32.31
2018-08-12T18:48:33.641Z,31.88
2018-08-12T18:53:37.580Z,32.31
2018-08-12T18:58:41.202Z,31.54
2018-08-12T19:03:45.108Z,31.20
2018-08-12T19:08:48.677Z,31.92
2018-08-12T19:13:52.901Z,31.21
2018-08-12T19:18:57.106Z,31.42
2018-08-12T19:24:00.540Z,30.98
2018-08-12T19:29:04.233Z,30.29
2018-08-12T19:34:08.037Z,30.19
2018-08-12T19:39:12.540Z,30.20
2018-08-12T19:44:16.124Z,30.36
2018-08-12T19:49:20.169Z,30.81
2018-08-12T19:54:24.679Z,30.47
2018-08-12T19:59:28.453Z,30.15
2018-08-12T20:04:32.017Z,29.90
2018-08-12T20:09:35.528Z,30.19
2018-08-12T20:14:39.122Z,30.61
2018-08-12T20:19:42.581Z,30.07
2018-08-12T20:24:46.202Z,30.25
2018-08-12T20:29:49.801Z,30.45
2018-08-12T20:34:53.404Z,30.33
2018-08-12T20:39:56.945Z,30.17
2018-08-12T20:45:00.678Z,30.04
2018-08-12T20:50:05.189Z,29.60
2018-08-12T20:55:09.241Z,29.76
2018-08-12T21:00:12.899Z,29.66
2018-08-12T21:05:16.480Z,29.66
2018-08-12T21:10:20.190Z,29.77
2018-08-12T21:15:24.089Z,29.89
2018-08-12T21:20:27.636Z,29.37
2018-08-12T21:25:31.424Z,29.54
2018-08-12T21:30:34.921Z,29.91
2018-08-12T21:35:38.424Z,29.82
2018-08-12T21:40:41.926Z,30.27
2018-08-12T21:45:45.731Z,29.67
2018-08-12T21:50:49.556Z,29.62
2018-08-12T21:55:53.290Z,29.73
2018-08-12T22:00:57.653Z,30.23
2018-08-12T22:06:01.220Z,30.06
2018-08-12T22:11:05.021Z,29.78
2018-08-12T22:16:08.885Z,30.16
2018-08-12T22:21:12.501Z,29.93
2018-08-12T22:26:16.382Z,30.45
2018-08-12T22:31:20.167Z,30.28
2018-08-12T22:36:24.002Z,30.17
2018-08-12T22:41:27.688Z,30.33
2018-08-12T22:46:31.377Z,30.18
2018-08-12T22:51:35.130Z,30.48
2018-08-12T22:56:39.157Z,30.41
2018-08-12T23:01:42.761Z,30.90
2018-08-12T23:06:46.250Z,30.87
2018-08-12T23:11:49.974Z,31.47
2018-08-12T23:16:56.987Z,30.48
2018-08-12T23:22:00.509Z,30.67
2018-08-12T23:27:04.328Z,31.32
2018-08-12T23:32:07.921Z,31.25
2018-08-12T23:37:11.532Z,30.95
2018-08-12T23:42:15.121Z,31.19
2018-08-12T23:47:18.632Z,30.86
2018-08-12T23:52:22.089Z,31.07
2018-08-12T23:57:25.726Z,30.79
